createdAt,value
2018-02-21T00:01:28.777Z,21.0
2018-02-21T00:11:46.383Z,22.0
2018-02-21T00:31:25.857Z,22.2
2018-02-21T00:41:46.716Z,21.8
2018-02-21T00:51:26.735Z,21.7
2018-02-21T01:01:31.752Z,19.0
2018-02-21T01:11:31.959Z,20.8
2018-02-21T01:21:27.874Z,18.5
2018-02-21T01:31:45.200Z,17.4
2018-02-21T01:41:37.137Z,19.8
2018-02-21T01:51:27.162Z,18.8
2018-02-21T02:01:32.051Z,17.6
2018-02-21T02:11:31.867Z,16.0
2018-02-21T02:21:32.283Z,17.2
2018-02-21T02:31:32.109Z,17.8
2018-02-21T02:41:31.384Z,16.5
2018-02-21T02:51:31.649Z,18.0
2018-02-21T03:02:02.056Z,19.7
2018-02-21T03:11:32.144Z,18.7
2018-02-21T03:21:32.024Z,18.2
2018-02-21T03:31:33.290Z,18.9
2018-02-21T03:41:31.441Z,19.1
2018-02-21T04:01:32.484Z,19.4
2018-02-21T04:11:32.094Z,21.6
2018-02-21T04:21:34.559Z,20.4
2018-02-21T04:31:32.740Z,19.6
2018-02-21T04:41:32.092Z,19.5
2018-02-21T04:51:32.153Z,19.2
2018-02-21T05:01:31.733Z,17.6
2018-02-21T05:11:31.333Z,18.5
2018-02-21T05:22:21.539Z,17.5
2018-02-21T05:31:32.225Z,17.5
2018-02-21T05:41:32.132Z,15.6
2018-02-21T05:51:33.245Z,18.7
2018-02-21T06:01:35.643Z,16.8
2018-02-21T06:11:31.665Z,18.4
2018-02-21T06:21:41.919Z,17.2
2018-02-21T06:31:31.906Z,16.2
2018-02-21T06:41:31.251Z,17.5
2018-02-21T06:51:32.459Z,18.5
2018-02-21T07:01:32.528Z,18.4
2018-02-21T07:12:07.955Z,16.2
2018-02-21T07:21:31.611Z,17.6
2018-02-21T09:41:51.918Z,19.6
2018-02-21T12:31:30.707Z,17.3
2018-02-21T19:51:33.018Z,34.0
2018-02-21T20:31:31.729Z,36.2
2018-02-21T20:41:31.218Z,37.6
2018-02-21T21:01:52.068Z,34.1
2018-02-21T21:11:32.192Z,51.6
2018-02-21T21:41:47.899Z,45.0
2018-02-21T21:51:31.505Z,42.8
2018-02-21T22:11:32.016Z,41.7
2018-02-21T22:21:40.346Z,41.9
2018-02-21T22:41:57.859Z,36.0
2018-02-21T22:51:51.208Z,33.1
2018-02-21T23:01:57.290Z,31.6
2018-02-21T23:11:32.170Z,28.4
2018-02-21T23:21:25.750Z,26.1
2018-02-21T23:31:33.441Z,24.8
